Blue Waters — CZ4012 — position and weather

sailwx.info

Track history (hours):
 
Tides and Currents Weather Stations Pressure Air Temp Water Temp Dewpoint Dewpoint Depression Visibility Wind Speed Wind Dir Waves Ship Positions

Blue Waters

Last reported at 2018-Aug-14 19:00 UTC. Time now 2018-Aug-14 19:28 UTC.
Position N 48°36' W 125°38'.

; draft 3 m.

Type: Fishing. MMSI: 316003703.

Date/timePositionNaut miles runAvg speedWind from/ knotsBaromVisibWave heightAir tempDewpointWater temp
2018-Aug-14 19:00N 48°36' W 125°38'4 7.0
2018-Aug-14 18:30N 48°36' W 125°33'0 0.1
2018-Aug-14 18:00N 48°36' W 125°33'0 0.8
2018-Aug-14 17:30N 48°36' W 125°33'1 1.0
2018-Aug-14 17:00N 48°36' W 125°34'1 2.0
2018-Aug-14 16:30N 48°36' W 125°35'1 2.4
2018-Aug-14 16:00N 48°36' W 125°37'1 1.3
2018-Aug-14 15:30N 48°36' W 125°36'1 2.6
2018-Aug-14 15:00N 48°36' W 125°34'1 1.2
2018-Aug-14 14:29N 48°36' W 125°33'4 7.6
2018-Aug-14 14:00N 48°36' W 125°39'3 5.1
2018-Aug-14 13:30N 48°37' W 125°35'4 7.5
2018-Aug-14 13:00N 48°41' W 125°35'4 7.5
2018-Aug-14 12:30N 48°44' W 125°34'4 7.8
2018-Aug-14 12:00N 48°48' W 125°33'4 7.9
2018-Aug-14 11:30N 48°52' W 125°32'4 7.6
2018-Aug-14 11:00N 48°56' W 125°32'1 1.2
2018-Aug-14 10:31N 48°56' W 125°32'0 0.0
2018-Aug-14 10:00N 48°56' W 125°32'0 0.0
2018-Aug-14 09:30N 48°56' W 125°32'0 0.0
2018-Aug-14 09:00N 48°56' W 125°32'0 0.0
2018-Aug-14 08:30N 48°56' W 125°32'0 0.0
2018-Aug-14 08:00N 48°56' W 125°32'0 0.0
2018-Aug-14 07:30N 48°56' W 125°32'0 0.0
2018-Aug-14 07:01N 48°56' W 125°32'0 0.0
2018-Aug-14 06:30N 48°56' W 125°32'0 0.0
2018-Aug-14 06:00N 48°56' W 125°32'0 0.0
2018-Aug-14 05:30N 48°56' W 125°32'0 0.0
2018-Aug-14 05:01N 48°56' W 125°32'0 0.0
2018-Aug-14 04:30N 48°56' W 125°32'0 0.0
2018-Aug-14 04:00N 48°56' W 125°32'1 1.9
2018-Aug-14 03:30N 48°57' W 125°33'0 0.1
2018-Aug-14 03:00N 48°57' W 125°33'0 0.0
2018-Aug-14 02:30N 48°57' W 125°33'0 0.0
2018-Aug-14 02:00N 48°57' W 125°33'0 0.8
2018-Aug-14 01:30N 48°57' W 125°33'0 0.4
2018-Aug-14 01:00N 48°57' W 125°33'0 0.0
2018-Aug-14 00:30N 48°57' W 125°33'0 0.0
2018-Aug-14 00:00N 48°57' W 125°33'0 0.0
2018-Aug-13 23:30N 48°57' W 125°33'0 0.0
2018-Aug-13 23:00N 48°57' W 125°33'0 0.0
2018-Aug-13 22:30N 48°57' W 125°33'0 0.0
2018-Aug-13 22:00N 48°57' W 125°33'0 0.0
2018-Aug-13 21:30N 48°57' W 125°33'0 0.0
2018-Aug-13 21:00N 48°57' W 125°33'0 0.0
2018-Aug-13 20:30N 48°57' W 125°33'0 0.3
2018-Aug-13 20:00N 48°57' W 125°33'1 1.1
2018-Aug-13 19:30N 48°57' W 125°33'0 0.0
2018-Aug-13 19:00N 48°57' W 125°33'0 0.0
2018-Aug-13 18:30N 48°57' W 125°33'0 0.0
2018-Aug-13 18:00N 48°57' W 125°33'0 0.0
2018-Aug-13 17:30N 48°57' W 125°33'0 0.0
2018-Aug-13 17:00N 48°57' W 125°33'0 0.0
2018-Aug-13 16:31N 48°57' W 125°33'0 0.0
2018-Aug-13 16:00N 48°57' W 125°33'0 0.0
2018-Aug-13 15:30N 48°57' W 125°33'0 0.0
2018-Aug-13 15:00N 48°57' W 125°33'0 0.0
2018-Aug-13 14:30N 48°57' W 125°33'0 0.0
2018-Aug-13 14:00N 48°57' W 125°33'0 0.0
2018-Aug-13 13:30N 48°57' W 125°33'0 0.0
2018-Aug-13 13:00N 48°57' W 125°33'0 0.0
2018-Aug-13 12:30N 48°57' W 125°33'0 0.0
2018-Aug-13 12:00N 48°57' W 125°33'0 0.0
2018-Aug-13 11:30N 48°57' W 125°33'0 0.0
2018-Aug-13 11:00N 48°57' W 125°33'0 0.0
2018-Aug-13 10:30N 48°57' W 125°33'1 1.1
2018-Aug-13 10:01N 48°57' W 125°33'1 2.3
2018-Aug-13 09:30N 48°56' W 125°32'3 6.6
2018-Aug-13 09:00N 48°53' W 125°32'4 7.3
2018-Aug-13 08:30N 48°49' W 125°31'3 6.9
2018-Aug-13 08:00N 48°45' W 125°30'4 7.2
2018-Aug-13 07:30N 48°42' W 125°30'4 7.1
2018-Aug-13 06:58N 48°38' W 125°28'3 6.8
2018-Aug-13 06:30N 48°35' W 125°28'2 3.7
2018-Aug-13 06:00N 48°33' W 125°28'1 2.6
2018-Aug-13 05:28N 48°32' W 125°29'1 1.8
2018-Aug-13 04:59N 48°31' W 125°29'1 1.7
2018-Aug-13 04:30N 48°30' W 125°30'1 1.4
2018-Aug-13 03:59N 48°30' W 125°31'1 1.3
2018-Aug-13 03:29N 48°30' W 125°32'1 1.8
2018-Aug-13 02:56N 48°31' W 125°32'1 2.9
2018-Aug-13 02:30N 48°32' W 125°32'1 2.8
2018-Aug-13 02:00N 48°33' W 125°32'2 2.9
2018-Aug-13 01:27N 48°35' W 125°31'1 3.0
2018-Aug-13 01:00N 48°35' W 125°33'1 2.9
2018-Aug-13 00:30N 48°36' W 125°36'2 3.4
2018-Aug-13 00:00N 48°35' W 125°33'3 6.6
2018-Aug-12 23:30N 48°36' W 125°29'4 6.9
2018-Aug-12 22:58N 48°36' W 125°23'3 5.9
2018-Aug-12 22:30N 48°36' W 125°19'2 4.9
2018-Aug-12 22:00N 48°37' W 125°16'3 6.3
2018-Aug-12 21:28N 48°38' W 125°21'3 6.9
2018-Aug-12 21:00N 48°37' W 125°26'1 1.9
2018-Aug-12 20:30N 48°36' W 125°26'2 2.5
2018-Aug-12 19:53N 48°35' W 125°24'1 2.0
2018-Aug-12 19:30N 48°36' W 125°24'0 0.1
2018-Aug-12 18:58N 48°36' W 125°24'1 1.1
2018-Aug-12 18:28N 48°36' W 125°25'1 1.7
2018-Aug-12 17:59N 48°36' W 125°26'1 1.3
2018-Aug-12 17:27N 48°37' W 125°26'1 3.0
2018-Aug-12 17:00N 48°37' W 125°24'1 1.8
2018-Aug-12 16:29N 48°37' W 125°25'4 7.4
2018-Aug-12 16:00N 48°37' W 125°30'3 6.3
2018-Aug-12 15:29N 48°36' W 125°35'1 2.9
2018-Aug-12 15:00N 48°35' W 125°33'1 2.9
2018-Aug-12 14:30N 48°34' W 125°31'3 5.4
2018-Aug-12 14:00N 48°35' W 125°35'3 5.7
2018-Aug-12 13:30N 48°38' W 125°36'4 7.4
2018-Aug-12 13:01N 48°42' W 125°35'4 7.2
2018-Aug-12 12:30N 48°45' W 125°34'4 7.2
2018-Aug-12 12:00N 48°49' W 125°33'4 7.3
2018-Aug-12 11:30N 48°52' W 125°33'3 7.0
2018-Aug-12 11:00N 48°56' W 125°32'2 3.4
2018-Aug-12 10:30N 48°57' W 125°33'0 0.0
2018-Aug-12 10:00N 48°57' W 125°33'0 0.0
2018-Aug-12 09:30N 48°57' W 125°33'0 0.0
2018-Aug-12 09:00N 48°57' W 125°33'0 0.0
2018-Aug-12 08:30N 48°57' W 125°33'0 0.0
2018-Aug-12 08:00N 48°57' W 125°33'0 0.0
2018-Aug-12 07:30N 48°57' W 125°33'0 0.0
2018-Aug-12 07:00N 48°57' W 125°33'0 0.0
2018-Aug-12 06:30N 48°57' W 125°33'0 0.0
2018-Aug-12 06:00N 48°57' W 125°33'0 0.0
2018-Aug-12 05:30N 48°57' W 125°33'0 0.0
2018-Aug-12 05:00N 48°57' W 125°33'0 0.0
2018-Aug-12 04:30N 48°57' W 125°33'0 0.0
2018-Aug-12 04:00N 48°57' W 125°33'0 0.0
2018-Aug-12 03:30N 48°57' W 125°33'0 0.0
2018-Aug-12 03:00N 48°57' W 125°33'0 0.0
2018-Aug-12 02:30N 48°57' W 125°33'0 0.0
2018-Aug-12 02:00N 48°57' W 125°33'0 0.0
2018-Aug-12 01:30N 48°57' W 125°33'0 0.0
2018-Aug-12 01:00N 48°57' W 125°33'0 0.0
2018-Aug-12 00:30N 48°57' W 125°33'0 0.0
2018-Aug-12 00:00N 48°57' W 125°33'0 0.0
2018-Aug-11 23:30N 48°57' W 125°33'0 0.0
2018-Aug-11 23:00N 48°57' W 125°33'0 0.0
2018-Aug-11 22:30N 48°57' W 125°33'0 0.0
2018-Aug-11 22:00N 48°57' W 125°33'0 0.0
2018-Aug-11 21:30N 48°57' W 125°33'0 0.0
2018-Aug-11 21:00N 48°57' W 125°33'0 0.0
2018-Aug-11 20:30N 48°57' W 125°33'0 0.0
2018-Aug-11 20:00N 48°57' W 125°33'0 0.0
2018-Aug-11 19:30N 48°57' W 125°33'0 0.0
2018-Aug-11 19:00N 48°57' W 125°33'0 0.0
2018-Aug-11 18:30N 48°57' W 125°33'0 0.0
2018-Aug-11 18:00N 48°57' W 125°33'0 0.0
2018-Aug-11 17:30N 48°57' W 125°33'0 0.0
2018-Aug-11 17:00N 48°57' W 125°33'0 0.0
2018-Aug-11 16:30N 48°57' W 125°33'0 0.0
2018-Aug-11 16:00N 48°57' W 125°33'0 0.0
2018-Aug-11 15:30N 48°57' W 125°33'0 0.0
2018-Aug-11 15:00N 48°57' W 125°33'0 0.0
2018-Aug-11 14:30N 48°57' W 125°33'0 0.0
2018-Aug-11 14:00N 48°57' W 125°33'0 0.0
2018-Aug-11 13:30N 48°57' W 125°33'0 0.0
2018-Aug-11 13:00N 48°57' W 125°33'0 0.0
2018-Aug-11 12:30N 48°57' W 125°33'0 0.0
2018-Aug-11 12:00N 48°57' W 125°33'0 0.0
2018-Aug-11 11:30N 48°57' W 125°33'0 0.0
2018-Aug-11 11:00N 48°57' W 125°33'0 0.0
2018-Aug-11 10:30N 48°57' W 125°33'0 0.0
2018-Aug-11 10:00N 48°57' W 125°33'0 0.0
2018-Aug-11 09:30N 48°57' W 125°33'0 0.0
2018-Aug-11 09:00N 48°57' W 125°33'0 0.0
2018-Aug-11 08:30N 48°57' W 125°33'0 0.0
2018-Aug-11 08:00N 48°57' W 125°33'0 0.0
2018-Aug-11 07:30N 48°57' W 125°33'0 0.0
2018-Aug-11 07:00N 48°57' W 125°33'0 0.0
2018-Aug-11 06:30N 48°57' W 125°33'0 0.0
2018-Aug-11 06:00N 48°57' W 125°33'0 0.0
2018-Aug-11 05:30N 48°57' W 125°33'0 0.0
2018-Aug-11 05:00N 48°57' W 125°33'0 0.0
2018-Aug-11 04:30N 48°57' W 125°33'0 0.0
2018-Aug-11 04:00N 48°57' W 125°33'0 0.1
2018-Aug-11 03:30N 48°57' W 125°33'0 0.1
2018-Aug-11 03:00N 48°57' W 125°33'0 0.1
2018-Aug-11 02:30N 48°57' W 125°33'0 0.0
2018-Aug-11 02:00N 48°57' W 125°33'0 0.0
2018-Aug-11 01:30N 48°57' W 125°33'0 0.0
2018-Aug-11 01:00N 48°57' W 125°33'0 0.1
2018-Aug-11 00:30N 48°57' W 125°33'0 0.1
2018-Aug-11 00:00N 48°57' W 125°33'0 0.0
2018-Aug-10 23:30N 48°57' W 125°33'0 0.0
2018-Aug-10 23:00N 48°57' W 125°33'0 0.0
2018-Aug-10 22:30N 48°57' W 125°33'0 0.0
2018-Aug-10 22:00N 48°57' W 125°33'0 0.0
2018-Aug-10 21:30N 48°57' W 125°33'0 0.0
2018-Aug-10 21:00N 48°57' W 125°33'0 0.0
2018-Aug-09 10:19N 48°57' W 125°33'0 0.0
2018-Aug-09 10:00N 48°57' W 125°33'0 0.1
2018-Aug-09 09:30N 48°57' W 125°33'0 0.1
2018-Aug-09 09:00N 48°57' W 125°33'0 0.1
2018-Aug-09 08:30N 48°57' W 125°33'0 0.0
2018-Aug-09 08:00N 48°57' W 125°33'0 0.0
2018-Aug-09 07:30N 48°57' W 125°33'0 0.0
2018-Aug-09 07:00N 48°57' W 125°33'0 0.0
2018-Aug-09 06:30N 48°57' W 125°33'0 0.0
2018-Aug-09 06:00N 48°57' W 125°33'0 0.0
2018-Aug-09 05:30N 48°57' W 125°33'0 0.0
2018-Aug-09 05:00N 48°57' W 125°33'0 0.0
2018-Aug-09 04:30N 48°57' W 125°33'0 0.0
2018-Aug-09 04:00N 48°57' W 125°33'0 0.0
2018-Aug-09 03:31N 48°57' W 125°33'0 0.1
2018-Aug-09 03:00N 48°57' W 125°33'0 0.9
2018-Aug-09 02:30N 48°57' W 125°33'0 0.1
2018-Aug-09 02:00N 48°57' W 125°33'0 0.0
2018-Aug-09 01:30N 48°57' W 125°33'0 0.0
2018-Aug-09 01:00N 48°57' W 125°33'0 0.9
2018-Aug-09 00:30N 48°57' W 125°33'0 0.0
2018-Aug-09 00:00N 48°57' W 125°33'0 0.0
2018-Aug-08 23:30N 48°57' W 125°33'0 0.0
2018-Aug-08 23:00N 48°57' W 125°33'0 0.0
2018-Aug-08 22:30N 48°57' W 125°33'0 0.0
2018-Aug-08 22:00N 48°57' W 125°33'0 0.0
2018-Aug-08 21:30N 48°57' W 125°33'0 0.0
2018-Aug-08 21:00N 48°57' W 125°33'0 0.0
2018-Aug-08 20:30N 48°57' W 125°33'0 0.0
2018-Aug-08 20:00N 48°57' W 125°33'0 0.0
2018-Aug-08 19:30N 48°57' W 125°33'0 0.0
2018-Aug-08 19:00N 48°57' W 125°33'0 0.0
2018-Aug-08 18:30N 48°57' W 125°33'0 0.0
2018-Aug-08 18:00N 48°57' W 125°33'0 0.0
2018-Aug-08 17:30N 48°57' W 125°33'0 0.0
2018-Aug-08 17:00N 48°57' W 125°33'0 0.0
2018-Aug-08 16:30N 48°57' W 125°33'0 0.0
2018-Aug-08 16:00N 48°57' W 125°33'0 0.0
2018-Aug-08 15:30N 48°57' W 125°33'0 0.0
2018-Aug-08 15:00N 48°57' W 125°33'0 0.0
2018-Aug-08 14:30N 48°57' W 125°33'0 0.0
2018-Aug-08 14:00N 48°57' W 125°33'0 0.0
2018-Aug-08 13:30N 48°57' W 125°33'0 0.0
2018-Aug-08 13:00N 48°57' W 125°33'0 0.0
2018-Aug-08 12:30N 48°57' W 125°33'0 0.0
2018-Aug-08 12:00N 48°57' W 125°33'0 0.0
2018-Aug-08 11:30N 48°57' W 125°33'0 0.0
2018-Aug-08 11:00N 48°57' W 125°33'0 0.0
2018-Aug-08 10:30N 48°57' W 125°33'0 0.0
2018-Aug-08 10:00N 48°57' W 125°33'0 0.0
2018-Aug-08 09:30N 48°57' W 125°33'0 0.0
2018-Aug-08 09:00N 48°57' W 125°33'0 0.0
2018-Aug-08 08:30N 48°57' W 125°33'0 0.0
2018-Aug-08 08:00N 48°57' W 125°33'0 0.0
2018-Aug-08 07:30N 48°57' W 125°33'0 0.0
2018-Aug-08 07:00N 48°57' W 125°33'0 0.0
2018-Aug-08 06:30N 48°57' W 125°33'0 0.0
2018-Aug-08 06:00N 48°57' W 125°33'0 0.0
2018-Aug-08 05:30N 48°57' W 125°33'0 0.0
2018-Aug-08 05:00N 48°57' W 125°33'0 0.0
2018-Aug-08 04:30N 48°57' W 125°33'0 0.0
2018-Aug-08 04:00N 48°57' W 125°33'0 0.0
2018-Aug-08 03:30N 48°57' W 125°33'0 0.0
2018-Aug-08 03:00N 48°57' W 125°33'0 0.0
2018-Aug-08 02:30N 48°57' W 125°33'0 0.0
2018-Aug-08 02:00N 48°57' W 125°33'0 0.0
2018-Aug-08 01:30N 48°57' W 125°33'0 0.0
2018-Aug-08 01:00N 48°57' W 125°33'0 0.0
2018-Aug-08 00:30N 48°57' W 125°33'0 0.0
2018-Aug-08 00:00N 48°57' W 125°33'0 0.0
2018-Aug-07 23:30N 48°57' W 125°33'0 0.0
2018-Aug-07 23:00N 48°57' W 125°33'0 0.0
2018-Aug-07 22:30N 48°57' W 125°33'0 0.0
2018-Aug-07 22:00N 48°57' W 125°33'0 0.0
2018-Aug-07 21:30N 48°57' W 125°33'0 0.0
2018-Aug-07 21:00N 48°57' W 125°33'0 0.0
2018-Aug-07 20:30N 48°57' W 125°33'0 0.0
2018-Aug-07 20:00N 48°57' W 125°33'0 0.0
2018-Aug-07 19:30N 48°57' W 125°33'0 0.0
2018-Aug-07 19:00N 48°57' W 125°33'0 0.0
2018-Aug-07 18:30N 48°57' W 125°33'0 0.0
2018-Aug-07 18:00N 48°57' W 125°33'0 0.0
2018-Aug-07 17:30N 48°57' W 125°33'0 0.0
2018-Aug-07 17:00N 48°57' W 125°33'0 0.0
2018-Aug-07 16:30N 48°57' W 125°33'0 0.0
2018-Aug-07 16:00N 48°57' W 125°33'0 0.0
2018-Aug-07 15:30N 48°57' W 125°33'0 0.0
2018-Aug-07 15:00N 48°57' W 125°33'0 0.0
2018-Aug-07 14:30N 48°57' W 125°33'0 0.0
2018-Aug-07 14:00N 48°57' W 125°33'0 0.0
2018-Aug-07 13:30N 48°57' W 125°33'0 0.0
2018-Aug-07 13:00N 48°57' W 125°33'0 0.0
2018-Aug-07 12:30N 48°57' W 125°33'0 0.0
2018-Aug-07 12:00N 48°57' W 125°33'0 0.0
2018-Aug-07 11:30N 48°57' W 125°33'0 0.0
2018-Aug-07 11:00N 48°57' W 125°33'0 0.0
2018-Aug-07 10:30N 48°57' W 125°33'0 0.0
2018-Aug-07 10:00N 48°57' W 125°33'0 0.0
2018-Aug-07 09:30N 48°57' W 125°33'0 0.0
2018-Aug-07 09:00N 48°57' W 125°33'0 0.0
2018-Aug-07 08:30N 48°57' W 125°33'0 0.0
2018-Aug-07 08:00N 48°57' W 125°33'0 0.0
2018-Aug-07 07:30N 48°57' W 125°33'0 0.0
2018-Aug-07 07:00N 48°57' W 125°33'0 0.0
2018-Aug-07 06:30N 48°57' W 125°33'0 0.0
2018-Aug-07 06:00N 48°57' W 125°33'0 0.0
2018-Aug-07 05:30N 48°57' W 125°33'0 0.0
2018-Aug-07 05:00N 48°57' W 125°33'0 0.0
2018-Aug-07 04:30N 48°57' W 125°33'0 0.0
2018-Aug-07 04:00N 48°57' W 125°33'0 0.0
2018-Aug-07 03:30N 48°57' W 125°33'0 0.0
2018-Aug-07 03:00N 48°57' W 125°33'0 0.0
2018-Aug-07 02:30N 48°57' W 125°33'0 0.0
2018-Aug-07 02:00N 48°57' W 125°33'0 0.0
2018-Aug-07 01:30N 48°57' W 125°33'0 0.0
2018-Aug-07 01:00N 48°57' W 125°33'0 0.0
2018-Aug-07 00:30N 48°57' W 125°33'0 0.0
2018-Aug-07 00:00N 48°57' W 125°33'0 0.0
2018-Aug-06 23:30N 48°57' W 125°33'0 0.0
2018-Aug-06 23:00N 48°57' W 125°33'0 0.0
2018-Aug-06 22:30N 48°57' W 125°33'0 0.0
2018-Aug-06 22:00N 48°57' W 125°33'0 0.0
2018-Aug-06 21:30N 48°57' W 125°33'0 0.0
2018-Aug-06 21:00N 48°57' W 125°33'0 0.0
2018-Aug-06 20:30N 48°57' W 125°33'0 0.0
2018-Aug-06 20:00N 48°57' W 125°33'0 0.0
2018-Aug-06 19:30N 48°57' W 125°33'0 0.0
2018-Aug-06 19:00N 48°57' W 125°33'0 0.0
2018-Aug-06 18:30N 48°57' W 125°33'0 0.0
2018-Aug-06 18:00N 48°57' W 125°33'0 0.0
2018-Aug-06 17:30N 48°57' W 125°33'0 0.0
2018-Aug-06 17:00N 48°57' W 125°33'0 0.0
2018-Aug-06 16:30N 48°57' W 125°33'0 0.0
2018-Aug-06 16:00N 48°57' W 125°33'0 0.0
2018-Aug-06 15:30N 48°57' W 125°33'0 0.0
2018-Aug-06 15:00N 48°57' W 125°33'0 0.0
2018-Aug-06 14:30N 48°57' W 125°33'0 0.0
2018-Aug-06 14:00N 48°57' W 125°33'0 0.0
2018-Aug-06 13:30N 48°57' W 125°33'0 0.0
2018-Aug-06 13:00N 48°57' W 125°33'0 0.0
2018-Aug-06 12:30N 48°57' W 125°33'0 0.0
2018-Aug-06 12:00N 48°57' W 125°33'0 0.0
2018-Aug-06 11:30N 48°57' W 125°33'0 0.0
2018-Aug-06 11:00N 48°57' W 125°33'0 0.0
2018-Aug-06 10:30N 48°57' W 125°33'0 0.0
2018-Aug-06 10:00N 48°57' W 125°33'0 0.0
2018-Aug-06 09:30N 48°57' W 125°33'0 0.0
2018-Aug-06 09:00N 48°57' W 125°33'0 0.0
2018-Aug-06 08:30N 48°57' W 125°33'0 0.0
2018-Aug-06 08:00N 48°57' W 125°33'0 0.0
2018-Aug-06 07:30N 48°57' W 125°33'0 0.0
2018-Aug-06 07:00N 48°57' W 125°33'0 0.0
2018-Aug-06 06:30N 48°57' W 125°33'0 0.0
2018-Aug-06 06:00N 48°57' W 125°33'0 0.0
2018-Aug-06 05:30N 48°57' W 125°33'0 0.0
2018-Aug-06 05:00N 48°57' W 125°33'0 0.0
2018-Aug-06 04:30N 48°57' W 125°33'0 0.0
2018-Aug-06 04:00N 48°57' W 125°33'0 0.0
2018-Aug-06 03:30N 48°57' W 125°33'0 0.0
2018-Aug-06 03:00N 48°57' W 125°33'0 0.0
2018-Aug-06 02:30N 48°57' W 125°33'0 0.0
2018-Aug-06 02:00N 48°57' W 125°33'0 0.0
2018-Aug-06 01:30N 48°57' W 125°33'0 0.0
2018-Aug-06 01:00N 48°57' W 125°33'0 0.0
2018-Aug-06 00:30N 48°57' W 125°33'0 0.0
2018-Aug-06 00:00N 48°57' W 125°33'0 0.0
2018-Aug-05 23:30N 48°57' W 125°33'0 0.0
2018-Aug-05 23:00N 48°57' W 125°33'0 0.0
2018-Aug-05 22:30N 48°57' W 125°33'0 0.0
2018-Aug-05 22:00N 48°57' W 125°33'0 0.0
2018-Aug-05 21:30N 48°57' W 125°33'0 0.0
2018-Aug-05 21:00N 48°57' W 125°33'0 0.0
2018-Aug-05 20:30N 48°57' W 125°33'0 0.0
2018-Aug-05 20:00N 48°57' W 125°33'0 0.0
2018-Aug-05 19:30N 48°57' W 125°33'0 0.0
2018-Aug-05 19:00N 48°57' W 125°33'0 0.0
2018-Aug-05 18:30N 48°57' W 125°33'0 0.0
2018-Aug-05 18:00N 48°57' W 125°33'0 0.0
2018-Aug-05 17:30N 48°57' W 125°33'0 0.0
2018-Aug-05 17:00N 48°57' W 125°33'0 0.0
2018-Aug-05 16:30N 48°57' W 125°33'0 0.0
2018-Aug-05 16:00N 48°57' W 125°33'0 0.0
2018-Aug-05 15:30N 48°57' W 125°33'0 0.0
2018-Aug-05 15:00N 48°57' W 125°33'0 0.0
2018-Aug-05 14:30N 48°57' W 125°33'0 0.0
2018-Aug-05 13:30N 48°57' W 125°33'0 0.0
2018-Aug-05 13:00N 48°57' W 125°33'0 0.0
2018-Aug-05 12:30N 48°57' W 125°33'0 0.0
2018-Aug-05 12:00N 48°57' W 125°33'0 0.0
2018-Aug-05 11:30N 48°57' W 125°33'0 0.0
2018-Aug-05 11:00N 48°57' W 125°33'0 0.0
2018-Aug-05 10:30N 48°57' W 125°33'0 0.0
2018-Aug-05 10:00N 48°57' W 125°33'0 0.0
2018-Aug-05 09:30N 48°57' W 125°33'0 0.0
2018-Aug-05 09:00N 48°57' W 125°33'0 0.0
2018-Aug-05 08:30N 48°57' W 125°33'0 0.0
2018-Aug-05 08:00N 48°57' W 125°33'0 0.0
2018-Aug-05 07:30N 48°57' W 125°33'0 0.0
2018-Aug-05 07:00N 48°57' W 125°33'0 0.0
2018-Aug-05 06:30N 48°57' W 125°33'0 0.0
2018-Aug-05 06:00N 48°57' W 125°33'0 0.0
2018-Aug-05 05:30N 48°57' W 125°33'0 0.0
2018-Aug-05 05:00N 48°57' W 125°33'0 0.0
2018-Aug-05 04:30N 48°57' W 125°33'0 0.0
2018-Aug-05 04:00N 48°57' W 125°33'0 0.0
2018-Aug-05 03:30N 48°57' W 125°33'0 0.0
2018-Aug-05 03:00N 48°57' W 125°33'0 0.0
2018-Aug-05 02:30N 48°57' W 125°33'0 0.0
2018-Aug-05 02:00N 48°57' W 125°33'0 0.0
2018-Aug-05 01:30N 48°57' W 125°33'0 0.0
2018-Aug-05 01:00N 48°57' W 125°33'0 0.0
2018-Aug-05 00:30N 48°57' W 125°33'0 0.0
2018-Aug-05 00:00N 48°57' W 125°33'0 0.0
2018-Aug-04 23:30N 48°57' W 125°33'0 0.0
2018-Aug-04 23:00N 48°57' W 125°33'0 0.0
2018-Aug-04 22:30N 48°57' W 125°33'0 0.0
2018-Aug-04 22:00N 48°57' W 125°33'0 0.0
2018-Aug-04 21:30N 48°57' W 125°33'0 0.0
2018-Aug-04 21:00N 48°57' W 125°33'0 0.0
2018-Aug-04 20:30N 48°57' W 125°33'0 0.0
2018-Aug-04 20:00N 48°57' W 125°33'0 0.0
2018-Aug-04 19:30N 48°57' W 125°33'0 0.0
2018-Aug-04 19:00N 48°57' W 125°33'  
Track history (hours):
 
Tides and Currents Weather Stations Pressure Air Temp Water Temp Dewpoint Dewpoint Depression Visibility Wind Speed Wind Dir Waves Ship Positions

Blue Waters

Last reported at 2018-Aug-14 19:00 UTC. Time now 2018-Aug-14 19:28 UTC.
Position N 48°36' W 125°38'.

; draft 3 m.

Type: Fishing. MMSI: 316003703.

Date/timePositionNaut miles runAvg speedWind from/ knotsBaromVisibWave heightAir tempDewpointWater temp
2018-Aug-14 19:00N 48°36' W 125°38'4 7.0
2018-Aug-14 18:30N 48°36' W 125°33'0 0.1
2018-Aug-14 18:00N 48°36' W 125°33'0 0.8
2018-Aug-14 17:30N 48°36' W 125°33'1 1.0
2018-Aug-14 17:00N 48°36' W 125°34'1 2.0
2018-Aug-14 16:30N 48°36' W 125°35'1 2.4
2018-Aug-14 16:00N 48°36' W 125°37'1 1.3
2018-Aug-14 15:30N 48°36' W 125°36'1 2.6
2018-Aug-14 15:00N 48°36' W 125°34'1 1.2
2018-Aug-14 14:29N 48°36' W 125°33'4 7.6
2018-Aug-14 14:00N 48°36' W 125°39'3 5.1
2018-Aug-14 13:30N 48°37' W 125°35'4 7.5
2018-Aug-14 13:00N 48°41' W 125°35'4 7.5
2018-Aug-14 12:30N 48°44' W 125°34'4 7.8
2018-Aug-14 12:00N 48°48' W 125°33'4 7.9
2018-Aug-14 11:30N 48°52' W 125°32'4 7.6
2018-Aug-14 11:00N 48°56' W 125°32'1 1.2
2018-Aug-14 10:31N 48°56' W 125°32'0 0.0
2018-Aug-14 10:00N 48°56' W 125°32'0 0.0
2018-Aug-14 09:30N 48°56' W 125°32'0 0.0
2018-Aug-14 09:00N 48°56' W 125°32'0 0.0
2018-Aug-14 08:30N 48°56' W 125°32'0 0.0
2018-Aug-14 08:00N 48°56' W 125°32'0 0.0
2018-Aug-14 07:30N 48°56' W 125°32'0 0.0
2018-Aug-14 07:01N 48°56' W 125°32'0 0.0
2018-Aug-14 06:30N 48°56' W 125°32'0 0.0
2018-Aug-14 06:00N 48°56' W 125°32'0 0.0
2018-Aug-14 05:30N 48°56' W 125°32'0 0.0
2018-Aug-14 05:01N 48°56' W 125°32'0 0.0
2018-Aug-14 04:30N 48°56' W 125°32'0 0.0
2018-Aug-14 04:00N 48°56' W 125°32'1 1.9
2018-Aug-14 03:30N 48°57' W 125°33'0 0.1
2018-Aug-14 03:00N 48°57' W 125°33'0 0.0
2018-Aug-14 02:30N 48°57' W 125°33'0 0.0
2018-Aug-14 02:00N 48°57' W 125°33'0 0.8
2018-Aug-14 01:30N 48°57' W 125°33'0 0.4
2018-Aug-14 01:00N 48°57' W 125°33'0 0.0
2018-Aug-14 00:30N 48°57' W 125°33'0 0.0
2018-Aug-14 00:00N 48°57' W 125°33'0 0.0
2018-Aug-13 23:30N 48°57' W 125°33'0 0.0
2018-Aug-13 23:00N 48°57' W 125°33'0 0.0
2018-Aug-13 22:30N 48°57' W 125°33'0 0.0
2018-Aug-13 22:00N 48°57' W 125°33'0 0.0
2018-Aug-13 21:30N 48°57' W 125°33'0 0.0
2018-Aug-13 21:00N 48°57' W 125°33'0 0.0
2018-Aug-13 20:30N 48°57' W 125°33'0 0.3
2018-Aug-13 20:00N 48°57' W 125°33'1 1.1
2018-Aug-13 19:30N 48°57' W 125°33'0 0.0
2018-Aug-13 19:00N 48°57' W 125°33'0 0.0
2018-Aug-13 18:30N 48°57' W 125°33'0 0.0
2018-Aug-13 18:00N 48°57' W 125°33'0 0.0
2018-Aug-13 17:30N 48°57' W 125°33'0 0.0
2018-Aug-13 17:00N 48°57' W 125°33'0 0.0
2018-Aug-13 16:31N 48°57' W 125°33'0 0.0
2018-Aug-13 16:00N 48°57' W 125°33'0 0.0
2018-Aug-13 15:30N 48°57' W 125°33'0 0.0
2018-Aug-13 15:00N 48°57' W 125°33'0 0.0
2018-Aug-13 14:30N 48°57' W 125°33'0 0.0
2018-Aug-13 14:00N 48°57' W 125°33'0 0.0
2018-Aug-13 13:30N 48°57' W 125°33'0 0.0
2018-Aug-13 13:00N 48°57' W 125°33'0 0.0
2018-Aug-13 12:30N 48°57' W 125°33'0 0.0
2018-Aug-13 12:00N 48°57' W 125°33'0 0.0
2018-Aug-13 11:30N 48°57' W 125°33'0 0.0
2018-Aug-13 11:00N 48°57' W 125°33'0 0.0
2018-Aug-13 10:30N 48°57' W 125°33'1 1.1
2018-Aug-13 10:01N 48°57' W 125°33'1 2.3
2018-Aug-13 09:30N 48°56' W 125°32'3 6.6
2018-Aug-13 09:00N 48°53' W 125°32'4 7.3
2018-Aug-13 08:30N 48°49' W 125°31'3 6.9
2018-Aug-13 08:00N 48°45' W 125°30'4 7.2
2018-Aug-13 07:30N 48°42' W 125°30'4 7.1
2018-Aug-13 06:58N 48°38' W 125°28'3 6.8
2018-Aug-13 06:30N 48°35' W 125°28'2 3.7
2018-Aug-13 06:00N 48°33' W 125°28'1 2.6
2018-Aug-13 05:28N 48°32' W 125°29'1 1.8
2018-Aug-13 04:59N 48°31' W 125°29'1 1.7
2018-Aug-13 04:30N 48°30' W 125°30'1 1.4
2018-Aug-13 03:59N 48°30' W 125°31'1 1.3
2018-Aug-13 03:29N 48°30' W 125°32'1 1.8
2018-Aug-13 02:56N 48°31' W 125°32'1 2.9
2018-Aug-13 02:30N 48°32' W 125°32'1 2.8
2018-Aug-13 02:00N 48°33' W 125°32'2 2.9
2018-Aug-13 01:27N 48°35' W 125°31'1 3.0
2018-Aug-13 01:00N 48°35' W 125°33'1 2.9
2018-Aug-13 00:30N 48°36' W 125°36'2 3.4
2018-Aug-13 00:00N 48°35' W 125°33'3 6.6
2018-Aug-12 23:30N 48°36' W 125°29'4 6.9
2018-Aug-12 22:58N 48°36' W 125°23'3 5.9
2018-Aug-12 22:30N 48°36' W 125°19'2 4.9
2018-Aug-12 22:00N 48°37' W 125°16'3 6.3
2018-Aug-12 21:28N 48°38' W 125°21'3 6.9
2018-Aug-12 21:00N 48°37' W 125°26'1 1.9
2018-Aug-12 20:30N 48°36' W 125°26'2 2.5
2018-Aug-12 19:53N 48°35' W 125°24'1 2.0
2018-Aug-12 19:30N 48°36' W 125°24'0 0.1
2018-Aug-12 18:58N 48°36' W 125°24'1 1.1
2018-Aug-12 18:28N 48°36' W 125°25'1 1.7
2018-Aug-12 17:59N 48°36' W 125°26'1 1.3
2018-Aug-12 17:27N 48°37' W 125°26'1 3.0
2018-Aug-12 17:00N 48°37' W 125°24'1 1.8
2018-Aug-12 16:29N 48°37' W 125°25'4 7.4
2018-Aug-12 16:00N 48°37' W 125°30'3 6.3
2018-Aug-12 15:29N 48°36' W 125°35'1 2.9
2018-Aug-12 15:00N 48°35' W 125°33'1 2.9
2018-Aug-12 14:30N 48°34' W 125°31'3 5.4
2018-Aug-12 14:00N 48°35' W 125°35'3 5.7
2018-Aug-12 13:30N 48°38' W 125°36'4 7.4
2018-Aug-12 13:01N 48°42' W 125°35'4 7.2
2018-Aug-12 12:30N 48°45' W 125°34'4 7.2
2018-Aug-12 12:00N 48°49' W 125°33'4 7.3
2018-Aug-12 11:30N 48°52' W 125°33'3 7.0
2018-Aug-12 11:00N 48°56' W 125°32'2 3.4
2018-Aug-12 10:30N 48°57' W 125°33'0 0.0
2018-Aug-12 10:00N 48°57' W 125°33'0 0.0
2018-Aug-12 09:30N 48°57' W 125°33'0 0.0
2018-Aug-12 09:00N 48°57' W 125°33'0 0.0
2018-Aug-12 08:30N 48°57' W 125°33'0 0.0
2018-Aug-12 08:00N 48°57' W 125°33'0 0.0
2018-Aug-12 07:30N 48°57' W 125°33'0 0.0
2018-Aug-12 07:00N 48°57' W 125°33'0 0.0
2018-Aug-12 06:30N 48°57' W 125°33'0 0.0
2018-Aug-12 06:00N 48°57' W 125°33'0 0.0
2018-Aug-12 05:30N 48°57' W 125°33'0 0.0
2018-Aug-12 05:00N 48°57' W 125°33'0 0.0
2018-Aug-12 04:30N 48°57' W 125°33'0 0.0
2018-Aug-12 04:00N 48°57' W 125°33'0 0.0
2018-Aug-12 03:30N 48°57' W 125°33'0 0.0
2018-Aug-12 03:00N 48°57' W 125°33'0 0.0
2018-Aug-12 02:30N 48°57' W 125°33'0 0.0
2018-Aug-12 02:00N 48°57' W 125°33'0 0.0
2018-Aug-12 01:30N 48°57' W 125°33'0 0.0
2018-Aug-12 01:00N 48°57' W 125°33'0 0.0
2018-Aug-12 00:30N 48°57' W 125°33'0 0.0
2018-Aug-12 00:00N 48°57' W 125°33'0 0.0
2018-Aug-11 23:30N 48°57' W 125°33'0 0.0
2018-Aug-11 23:00N 48°57' W 125°33'0 0.0
2018-Aug-11 22:30N 48°57' W 125°33'0 0.0
2018-Aug-11 22:00N 48°57' W 125°33'0 0.0
2018-Aug-11 21:30N 48°57' W 125°33'0 0.0
2018-Aug-11 21:00N 48°57' W 125°33'0 0.0
2018-Aug-11 20:30N 48°57' W 125°33'0 0.0
2018-Aug-11 20:00N 48°57' W 125°33'0 0.0
2018-Aug-11 19:30N 48°57' W 125°33'0 0.0
2018-Aug-11 19:00N 48°57' W 125°33'0 0.0
2018-Aug-11 18:30N 48°57' W 125°33'0 0.0
2018-Aug-11 18:00N 48°57' W 125°33'0 0.0
2018-Aug-11 17:30N 48°57' W 125°33'0 0.0
2018-Aug-11 17:00N 48°57' W 125°33'0 0.0
2018-Aug-11 16:30N 48°57' W 125°33'0 0.0
2018-Aug-11 16:00N 48°57' W 125°33'0 0.0
2018-Aug-11 15:30N 48°57' W 125°33'0 0.0
2018-Aug-11 15:00N 48°57' W 125°33'0 0.0
2018-Aug-11 14:30N 48°57' W 125°33'0 0.0
2018-Aug-11 14:00N 48°57' W 125°33'0 0.0
2018-Aug-11 13:30N 48°57' W 125°33'0 0.0
2018-Aug-11 13:00N 48°57' W 125°33'0 0.0
2018-Aug-11 12:30N 48°57' W 125°33'0 0.0
2018-Aug-11 12:00N 48°57' W 125°33'0 0.0
2018-Aug-11 11:30N 48°57' W 125°33'0 0.0
2018-Aug-11 11:00N 48°57' W 125°33'0 0.0
2018-Aug-11 10:30N 48°57' W 125°33'0 0.0
2018-Aug-11 10:00N 48°57' W 125°33'0 0.0
2018-Aug-11 09:30N 48°57' W 125°33'0 0.0
2018-Aug-11 09:00N 48°57' W 125°33'0 0.0
2018-Aug-11 08:30N 48°57' W 125°33'0 0.0
2018-Aug-11 08:00N 48°57' W 125°33'0 0.0
2018-Aug-11 07:30N 48°57' W 125°33'0 0.0
2018-Aug-11 07:00N 48°57' W 125°33'0 0.0
2018-Aug-11 06:30N 48°57' W 125°33'0 0.0
2018-Aug-11 06:00N 48°57' W 125°33'0 0.0
2018-Aug-11 05:30N 48°57' W 125°33'0 0.0
2018-Aug-11 05:00N 48°57' W 125°33'0 0.0
2018-Aug-11 04:30N 48°57' W 125°33'0 0.0
2018-Aug-11 04:00N 48°57' W 125°33'0 0.1
2018-Aug-11 03:30N 48°57' W 125°33'0 0.1
2018-Aug-11 03:00N 48°57' W 125°33'0 0.1
2018-Aug-11 02:30N 48°57' W 125°33'0 0.0
2018-Aug-11 02:00N 48°57' W 125°33'0 0.0
2018-Aug-11 01:30N 48°57' W 125°33'0 0.0
2018-Aug-11 01:00N 48°57' W 125°33'0 0.1
2018-Aug-11 00:30N 48°57' W 125°33'0 0.1
2018-Aug-11 00:00N 48°57' W 125°33'0 0.0
2018-Aug-10 23:30N 48°57' W 125°33'0 0.0
2018-Aug-10 23:00N 48°57' W 125°33'0 0.0
2018-Aug-10 22:30N 48°57' W 125°33'0 0.0
2018-Aug-10 22:00N 48°57' W 125°33'0 0.0
2018-Aug-10 21:30N 48°57' W 125°33'0 0.0
2018-Aug-10 21:00N 48°57' W 125°33'0 0.0
2018-Aug-09 10:19N 48°57' W 125°33'0 0.0
2018-Aug-09 10:00N 48°57' W 125°33'0 0.1
2018-Aug-09 09:30N 48°57' W 125°33'0 0.1
2018-Aug-09 09:00N 48°57' W 125°33'0 0.1
2018-Aug-09 08:30N 48°57' W 125°33'0 0.0
2018-Aug-09 08:00N 48°57' W 125°33'0 0.0
2018-Aug-09 07:30N 48°57' W 125°33'0 0.0
2018-Aug-09 07:00N 48°57' W 125°33'0 0.0
2018-Aug-09 06:30N 48°57' W 125°33'0 0.0
2018-Aug-09 06:00N 48°57' W 125°33'0 0.0
2018-Aug-09 05:30N 48°57' W 125°33'0 0.0
2018-Aug-09 05:00N 48°57' W 125°33'0 0.0
2018-Aug-09 04:30N 48°57' W 125°33'0 0.0
2018-Aug-09 04:00N 48°57' W 125°33'0 0.0
2018-Aug-09 03:31N 48°57' W 125°33'0 0.1
2018-Aug-09 03:00N 48°57' W 125°33'0 0.9
2018-Aug-09 02:30N 48°57' W 125°33'0 0.1
2018-Aug-09 02:00N 48°57' W 125°33'0 0.0
2018-Aug-09 01:30N 48°57' W 125°33'0 0.0
2018-Aug-09 01:00N 48°57' W 125°33'0 0.9
2018-Aug-09 00:30N 48°57' W 125°33'0 0.0
2018-Aug-09 00:00N 48°57' W 125°33'0 0.0
2018-Aug-08 23:30N 48°57' W 125°33'0 0.0
2018-Aug-08 23:00N 48°57' W 125°33'0 0.0
2018-Aug-08 22:30N 48°57' W 125°33'0 0.0
2018-Aug-08 22:00N 48°57' W 125°33'0 0.0
2018-Aug-08 21:30N 48°57' W 125°33'0 0.0
2018-Aug-08 21:00N 48°57' W 125°33'0 0.0
2018-Aug-08 20:30N 48°57' W 125°33'0 0.0
2018-Aug-08 20:00N 48°57' W 125°33'0 0.0
2018-Aug-08 19:30N 48°57' W 125°33'0 0.0
2018-Aug-08 19:00N 48°57' W 125°33'0 0.0
2018-Aug-08 18:30N 48°57' W 125°33'0 0.0
2018-Aug-08 18:00N 48°57' W 125°33'0 0.0
2018-Aug-08 17:30N 48°57' W 125°33'0 0.0
2018-Aug-08 17:00N 48°57' W 125°33'0 0.0
2018-Aug-08 16:30N 48°57' W 125°33'0 0.0
2018-Aug-08 16:00N 48°57' W 125°33'0 0.0
2018-Aug-08 15:30N 48°57' W 125°33'0 0.0
2018-Aug-08 15:00N 48°57' W 125°33'0 0.0
2018-Aug-08 14:30N 48°57' W 125°33'0 0.0
2018-Aug-08 14:00N 48°57' W 125°33'0 0.0
2018-Aug-08 13:30N 48°57' W 125°33'0 0.0
2018-Aug-08 13:00N 48°57' W 125°33'0 0.0
2018-Aug-08 12:30N 48°57' W 125°33'0 0.0
2018-Aug-08 12:00N 48°57' W 125°33'0 0.0
2018-Aug-08 11:30N 48°57' W 125°33'0 0.0
2018-Aug-08 11:00N 48°57' W 125°33'0 0.0
2018-Aug-08 10:30N 48°57' W 125°33'0 0.0
2018-Aug-08 10:00N 48°57' W 125°33'0 0.0
2018-Aug-08 09:30N 48°57' W 125°33'0 0.0
2018-Aug-08 09:00N 48°57' W 125°33'0 0.0
2018-Aug-08 08:30N 48°57' W 125°33'0 0.0
2018-Aug-08 08:00N 48°57' W 125°33'0 0.0
2018-Aug-08 07:30N 48°57' W 125°33'0 0.0
2018-Aug-08 07:00N 48°57' W 125°33'0 0.0
2018-Aug-08 06:30N 48°57' W 125°33'0 0.0
2018-Aug-08 06:00N 48°57' W 125°33'0 0.0
2018-Aug-08 05:30N 48°57' W 125°33'0 0.0
2018-Aug-08 05:00N 48°57' W 125°33'0 0.0
2018-Aug-08 04:30N 48°57' W 125°33'0 0.0
2018-Aug-08 04:00N 48°57' W 125°33'0 0.0
2018-Aug-08 03:30N 48°57' W 125°33'0 0.0
2018-Aug-08 03:00N 48°57' W 125°33'0 0.0
2018-Aug-08 02:30N 48°57' W 125°33'0 0.0
2018-Aug-08 02:00N 48°57' W 125°33'0 0.0
2018-Aug-08 01:30N 48°57' W 125°33'0 0.0
2018-Aug-08 01:00N 48°57' W 125°33'0 0.0
2018-Aug-08 00:30N 48°57' W 125°33'0 0.0
2018-Aug-08 00:00N 48°57' W 125°33'0 0.0
2018-Aug-07 23:30N 48°57' W 125°33'0 0.0
2018-Aug-07 23:00N 48°57' W 125°33'0 0.0
2018-Aug-07 22:30N 48°57' W 125°33'0 0.0
2018-Aug-07 22:00N 48°57' W 125°33'0 0.0
2018-Aug-07 21:30N 48°57' W 125°33'0 0.0
2018-Aug-07 21:00N 48°57' W 125°33'0 0.0
2018-Aug-07 20:30N 48°57' W 125°33'0 0.0
2018-Aug-07 20:00N 48°57' W 125°33'0 0.0
2018-Aug-07 19:30N 48°57' W 125°33'0 0.0
2018-Aug-07 19:00N 48°57' W 125°33'0 0.0
2018-Aug-07 18:30N 48°57' W 125°33'0 0.0
2018-Aug-07 18:00N 48°57' W 125°33'0 0.0
2018-Aug-07 17:30N 48°57' W 125°33'0 0.0
2018-Aug-07 17:00N 48°57' W 125°33'0 0.0
2018-Aug-07 16:30N 48°57' W 125°33'0 0.0
2018-Aug-07 16:00N 48°57' W 125°33'0 0.0
2018-Aug-07 15:30N 48°57' W 125°33'0 0.0
2018-Aug-07 15:00N 48°57' W 125°33'0 0.0
2018-Aug-07 14:30N 48°57' W 125°33'0 0.0
2018-Aug-07 14:00N 48°57' W 125°33'0 0.0
2018-Aug-07 13:30N 48°57' W 125°33'0 0.0
2018-Aug-07 13:00N 48°57' W 125°33'0 0.0
2018-Aug-07 12:30N 48°57' W 125°33'0 0.0
2018-Aug-07 12:00N 48°57' W 125°33'0 0.0
2018-Aug-07 11:30N 48°57' W 125°33'0 0.0
2018-Aug-07 11:00N 48°57' W 125°33'0 0.0
2018-Aug-07 10:30N 48°57' W 125°33'0 0.0
2018-Aug-07 10:00N 48°57' W 125°33'0 0.0
2018-Aug-07 09:30N 48°57' W 125°33'0 0.0
2018-Aug-07 09:00N 48°57' W 125°33'0 0.0
2018-Aug-07 08:30N 48°57' W 125°33'0 0.0
2018-Aug-07 08:00N 48°57' W 125°33'0 0.0
2018-Aug-07 07:30N 48°57' W 125°33'0 0.0
2018-Aug-07 07:00N 48°57' W 125°33'0 0.0
2018-Aug-07 06:30N 48°57' W 125°33'0 0.0
2018-Aug-07 06:00N 48°57' W 125°33'0 0.0
2018-Aug-07 05:30N 48°57' W 125°33'0 0.0
2018-Aug-07 05:00N 48°57' W 125°33'0 0.0
2018-Aug-07 04:30N 48°57' W 125°33'0 0.0
2018-Aug-07 04:00N 48°57' W 125°33'0 0.0
2018-Aug-07 03:30N 48°57' W 125°33'0 0.0
2018-Aug-07 03:00N 48°57' W 125°33'0 0.0
2018-Aug-07 02:30N 48°57' W 125°33'0 0.0
2018-Aug-07 02:00N 48°57' W 125°33'0 0.0
2018-Aug-07 01:30N 48°57' W 125°33'0 0.0
2018-Aug-07 01:00N 48°57' W 125°33'0 0.0
2018-Aug-07 00:30N 48°57' W 125°33'0 0.0
2018-Aug-07 00:00N 48°57' W 125°33'0 0.0
2018-Aug-06 23:30N 48°57' W 125°33'0 0.0
2018-Aug-06 23:00N 48°57' W 125°33'0 0.0
2018-Aug-06 22:30N 48°57' W 125°33'0 0.0
2018-Aug-06 22:00N 48°57' W 125°33'0 0.0
2018-Aug-06 21:30N 48°57' W 125°33'0 0.0
2018-Aug-06 21:00N 48°57' W 125°33'0 0.0
2018-Aug-06 20:30N 48°57' W 125°33'0 0.0
2018-Aug-06 20:00N 48°57' W 125°33'0 0.0
2018-Aug-06 19:30N 48°57' W 125°33'0 0.0
2018-Aug-06 19:00N 48°57' W 125°33'0 0.0
2018-Aug-06 18:30N 48°57' W 125°33'0 0.0
2018-Aug-06 18:00N 48°57' W 125°33'0 0.0
2018-Aug-06 17:30N 48°57' W 125°33'0 0.0
2018-Aug-06 17:00N 48°57' W 125°33'0 0.0
2018-Aug-06 16:30N 48°57' W 125°33'0 0.0
2018-Aug-06 16:00N 48°57' W 125°33'0 0.0
2018-Aug-06 15:30N 48°57' W 125°33'0 0.0
2018-Aug-06 15:00N 48°57' W 125°33'0 0.0
2018-Aug-06 14:30N 48°57' W 125°33'0 0.0
2018-Aug-06 14:00N 48°57' W 125°33'0 0.0
2018-Aug-06 13:30N 48°57' W 125°33'0 0.0
2018-Aug-06 13:00N 48°57' W 125°33'0 0.0
2018-Aug-06 12:30N 48°57' W 125°33'0 0.0
2018-Aug-06 12:00N 48°57' W 125°33'0 0.0
2018-Aug-06 11:30N 48°57' W 125°33'0 0.0
2018-Aug-06 11:00N 48°57' W 125°33'0 0.0
2018-Aug-06 10:30N 48°57' W 125°33'0 0.0
2018-Aug-06 10:00N 48°57' W 125°33'0 0.0
2018-Aug-06 09:30N 48°57' W 125°33'0 0.0
2018-Aug-06 09:00N 48°57' W 125°33'0 0.0
2018-Aug-06 08:30N 48°57' W 125°33'0 0.0
2018-Aug-06 08:00N 48°57' W 125°33'0 0.0
2018-Aug-06 07:30N 48°57' W 125°33'0 0.0
2018-Aug-06 07:00N 48°57' W 125°33'0 0.0
2018-Aug-06 06:30N 48°57' W 125°33'0 0.0
2018-Aug-06 06:00N 48°57' W 125°33'0 0.0
2018-Aug-06 05:30N 48°57' W 125°33'0 0.0
2018-Aug-06 05:00N 48°57' W 125°33'0 0.0
2018-Aug-06 04:30N 48°57' W 125°33'0 0.0
2018-Aug-06 04:00N 48°57' W 125°33'0 0.0
2018-Aug-06 03:30N 48°57' W 125°33'0 0.0
2018-Aug-06 03:00N 48°57' W 125°33'0 0.0
2018-Aug-06 02:30N 48°57' W 125°33'0 0.0
2018-Aug-06 02:00N 48°57' W 125°33'0 0.0
2018-Aug-06 01:30N 48°57' W 125°33'0 0.0
2018-Aug-06 01:00N 48°57' W 125°33'0 0.0
2018-Aug-06 00:30N 48°57' W 125°33'0 0.0
2018-Aug-06 00:00N 48°57' W 125°33'0 0.0
2018-Aug-05 23:30N 48°57' W 125°33'0 0.0
2018-Aug-05 23:00N 48°57' W 125°33'0 0.0
2018-Aug-05 22:30N 48°57' W 125°33'0 0.0
2018-Aug-05 22:00N 48°57' W 125°33'0 0.0
2018-Aug-05 21:30N 48°57' W 125°33'0 0.0
2018-Aug-05 21:00N 48°57' W 125°33'0 0.0
2018-Aug-05 20:30N 48°57' W 125°33'0 0.0
2018-Aug-05 20:00N 48°57' W 125°33'0 0.0
2018-Aug-05 19:30N 48°57' W 125°33'0 0.0
2018-Aug-05 19:00N 48°57' W 125°33'0 0.0
2018-Aug-05 18:30N 48°57' W 125°33'0 0.0
2018-Aug-05 18:00N 48°57' W 125°33'0 0.0
2018-Aug-05 17:30N 48°57' W 125°33'0 0.0
2018-Aug-05 17:00N 48°57' W 125°33'0 0.0
2018-Aug-05 16:30N 48°57' W 125°33'0 0.0
2018-Aug-05 16:00N 48°57' W 125°33'0 0.0
2018-Aug-05 15:30N 48°57' W 125°33'0 0.0
2018-Aug-05 15:00N 48°57' W 125°33'0 0.0
2018-Aug-05 14:30N 48°57' W 125°33'0 0.0
2018-Aug-05 13:30N 48°57' W 125°33'0 0.0
2018-Aug-05 13:00N 48°57' W 125°33'0 0.0
2018-Aug-05 12:30N 48°57' W 125°33'0 0.0
2018-Aug-05 12:00N 48°57' W 125°33'0 0.0
2018-Aug-05 11:30N 48°57' W 125°33'0 0.0
2018-Aug-05 11:00N 48°57' W 125°33'0 0.0
2018-Aug-05 10:30N 48°57' W 125°33'0 0.0
2018-Aug-05 10:00N 48°57' W 125°33'0 0.0
2018-Aug-05 09:30N 48°57' W 125°33'0 0.0
2018-Aug-05 09:00N 48°57' W 125°33'0 0.0
2018-Aug-05 08:30N 48°57' W 125°33'0 0.0
2018-Aug-05 08:00N 48°57' W 125°33'0 0.0
2018-Aug-05 07:30N 48°57' W 125°33'0 0.0
2018-Aug-05 07:00N 48°57' W 125°33'0 0.0
2018-Aug-05 06:30N 48°57' W 125°33'0 0.0
2018-Aug-05 06:00N 48°57' W 125°33'0 0.0
2018-Aug-05 05:30N 48°57' W 125°33'0 0.0
2018-Aug-05 05:00N 48°57' W 125°33'0 0.0
2018-Aug-05 04:30N 48°57' W 125°33'0 0.0
2018-Aug-05 04:00N 48°57' W 125°33'0 0.0
2018-Aug-05 03:30N 48°57' W 125°33'0 0.0
2018-Aug-05 03:00N 48°57' W 125°33'0 0.0
2018-Aug-05 02:30N 48°57' W 125°33'0 0.0
2018-Aug-05 02:00N 48°57' W 125°33'0 0.0
2018-Aug-05 01:30N 48°57' W 125°33'0 0.0
2018-Aug-05 01:00N 48°57' W 125°33'0 0.0
2018-Aug-05 00:30N 48°57' W 125°33'0 0.0
2018-Aug-05 00:00N 48°57' W 125°33'0 0.0
2018-Aug-04 23:30N 48°57' W 125°33'0 0.0
2018-Aug-04 23:00N 48°57' W 125°33'0 0.0
2018-Aug-04 22:30N 48°57' W 125°33'0 0.0
2018-Aug-04 22:00N 48°57' W 125°33'0 0.0
2018-Aug-04 21:30N 48°57' W 125°33'0 0.0
2018-Aug-04 21:00N 48°57' W 125°33'0 0.0
2018-Aug-04 20:30N 48°57' W 125°33'0 0.0
2018-Aug-04 20:00N 48°57' W 125°33'0 0.0
2018-Aug-04 19:30N 48°57' W 125°33'0 0.0
2018-Aug-04 19:00N 48°57' W 125°33'  

Dump ship's entire track history